createdAt,value
2017-11-20T00:01:05.665Z,7.92
2017-11-20T00:03:34.114Z,7.71
2017-11-20T00:06:02.523Z,7.75
2017-11-20T00:08:31.124Z,7.82
2017-11-20T00:10:59.515Z,7.69
2017-11-20T00:13:27.948Z,7.67
2017-11-20T00:15:57.176Z,7.71
2017-11-20T00:18:25.578Z,7.93
2017-11-20T00:20:54.063Z,7.86
2017-11-20T00:23:23.363Z,7.96
2017-11-20T00:25:51.740Z,7.93
2017-11-20T00:28:20.162Z,7.77
2017-11-20T00:30:50.251Z,7.82
2017-11-20T00:33:19.509Z,7.74
2017-11-20T00:35:47.915Z,7.97
2017-11-20T00:38:16.301Z,7.97
2017-11-20T00:40:44.690Z,8.02
2017-11-20T00:43:13.193Z,8.33
2017-11-20T00:45:42.383Z,8.37
2017-11-20T00:48:10.774Z,8.35
2017-11-20T00:50:39.184Z,8.34
2017-11-20T00:53:07.574Z,8.54
2017-11-20T00:55:36.038Z,8.43
2017-11-20T00:58:04.464Z,8.47
2017-11-20T01:00:32.885Z,8.27
2017-11-20T01:03:01.979Z,8.39
2017-11-20T01:05:30.490Z,8.27
2017-11-20T01:08:00.152Z,8.14
2017-11-20T01:10:28.814Z,8.21
2017-11-20T01:12:57.221Z,8.29
2017-11-20T01:15:25.596Z,8.07
2017-11-20T01:17:53.977Z,8.03
2017-11-20T01:20:22.400Z,8.24
2017-11-20T01:22:50.774Z,8.17
2017-11-20T01:25:19.142Z,8.28
2017-11-20T01:27:47.645Z,8.26
2017-11-20T01:30:16.045Z,8.10
2017-11-20T01:32:44.423Z,7.99
2017-11-20T01:35:13.735Z,7.93
2017-11-20T01:37:42.110Z,7.83
2017-11-20T01:40:10.481Z,7.82
2017-11-20T01:42:38.898Z,7.68
2017-11-20T01:45:07.971Z,7.66
2017-11-20T01:47:36.359Z,7.66
2017-11-20T01:50:04.915Z,7.79
2017-11-20T01:52:33.293Z,7.77
2017-11-20T01:55:01.692Z,7.80
2017-11-20T01:57:30.091Z,7.98
2017-11-20T01:59:58.469Z,7.93
2017-11-20T02:02:26.885Z,7.86
2017-11-20T02:04:56.064Z,7.92
2017-11-20T02:07:24.479Z,8.05
2017-11-20T02:09:52.849Z,8.02
2017-11-20T02:12:21.489Z,8.17
2017-11-20T02:14:49.889Z,8.33
2017-11-20T02:17:19.063Z,8.46
2017-11-20T02:19:47.501Z,8.36
2017-11-20T02:22:15.941Z,8.55
2017-11-20T02:24:44.333Z,8.66
2017-11-20T02:27:12.746Z,8.58
2017-11-20T02:29:41.196Z,8.68
2017-11-20T02:32:09.584Z,8.69
2017-11-20T02:34:38.225Z,8.49
2017-11-20T02:37:07.399Z,8.53
2017-11-20T02:39:35.992Z,8.28
2017-11-20T02:42:04.412Z,8.40
2017-11-20T02:44:33.510Z,8.32
2017-11-20T02:47:02.408Z,8.43
2017-11-20T02:49:30.825Z,8.40
2017-11-20T02:51:59.787Z,8.45
2017-11-20T02:54:28.939Z,8.33
2017-11-20T02:56:58.362Z,8.25
2017-11-20T02:59:26.741Z,8.17
2017-11-20T03:01:55.154Z,8.04
2017-11-20T03:04:24.338Z,7.82
2017-11-20T03:06:52.719Z,7.80
2017-11-20T03:09:21.859Z,7.93
2017-11-20T03:11:50.528Z,7.83
2017-11-20T03:14:18.924Z,7.74
2017-11-20T03:16:47.904Z,7.61
2017-11-20T03:19:17.305Z,7.54
2017-11-20T03:21:45.676Z,7.56
2017-11-20T03:24:14.081Z,7.47
2017-11-20T03:26:42.532Z,7.44
2017-11-20T03:29:11.685Z,7.49
2017-11-20T03:31:40.073Z,7.46
2017-11-20T03:34:08.481Z,7.39
2017-11-20T03:36:37.650Z,7.50
2017-11-20T03:39:06.018Z,7.44
2017-11-20T03:41:34.603Z,7.44
2017-11-20T03:44:02.981Z,7.29
2017-11-20T03:46:31.385Z,7.44
2017-11-20T03:48:59.806Z,7.48
2017-11-20T03:51:28.188Z,7.34
2017-11-20T03:53:56.591Z,7.40
2017-11-20T03:56:26.021Z,7.18
2017-11-20T03:58:55.401Z,7.16
2017-11-20T04:01:23.785Z,7.26
2017-11-20T04:03:52.459Z,7.20
2017-11-20T04:06:20.838Z,7.02
2017-11-20T04:08:50.013Z,6.97
2017-11-20T04:11:18.448Z,7.08
2017-11-20T04:13:46.846Z,7.23
2017-11-20T04:16:16.033Z,7.38
2017-11-20T04:18:44.452Z,7.25
2017-11-20T04:21:12.836Z,7.26
2017-11-20T04:23:41.977Z,7.28
2017-11-20T04:26:10.561Z,7.09
2017-11-20T04:28:38.940Z,7.25
2017-11-20T04:31:07.318Z,7.06
2017-11-20T04:33:35.733Z,6.96
2017-11-20T04:36:04.866Z,6.87
2017-11-20T04:38:33.279Z,6.93
2017-11-20T04:41:02.371Z,6.98
2017-11-20T04:43:30.754Z,6.84
2017-11-20T04:45:59.118Z,7.00
2017-11-20T04:48:27.682Z,7.13
2017-11-20T04:50:56.057Z,7.09
2017-11-20T04:53:24.435Z,7.00
2017-11-20T04:55:52.852Z,7.13
2017-11-20T04:58:21.230Z,7.26
2017-11-20T05:00:49.605Z,7.39
2017-11-20T05:03:18.031Z,7.22
2017-11-20T05:05:46.411Z,6.99
2017-11-20T05:08:15.558Z,7.02
2017-11-20T05:10:44.027Z,7.00
2017-11-20T05:13:12.416Z,7.02
2017-11-20T05:15:41.486Z,6.99
2017-11-20T05:18:10.273Z,6.88
2017-11-20T05:20:38.653Z,6.92
2017-11-20T05:23:07.266Z,6.78
2017-11-20T05:25:35.677Z,6.93
2017-11-20T05:28:04.060Z,6.84
2017-11-20T05:30:32.445Z,6.89
2017-11-20T05:33:01.718Z,6.93
2017-11-20T05:35:30.097Z,7.09
2017-11-20T05:37:58.482Z,6.95
2017-11-20T05:40:26.884Z,6.90
2017-11-20T05:42:55.321Z,6.99
2017-11-20T05:45:23.910Z,6.90
2017-11-20T05:47:52.324Z,6.99
2017-11-20T05:50:21.160Z,7.05
2017-11-20T05:52:50.925Z,7.08
2017-11-20T05:55:19.563Z,7.03
2017-11-20T05:57:47.927Z,7.19
2017-11-20T06:00:16.319Z,7.30
2017-11-20T06:02:44.724Z,6.98
2017-11-20T06:05:13.902Z,6.98
2017-11-20T06:07:42.309Z,7.04
2017-11-20T06:10:10.706Z,6.93
2017-11-20T06:12:39.884Z,6.96
2017-11-20T06:15:08.401Z,6.86
2017-11-20T06:17:38.411Z,6.94
2017-11-20T06:20:06.788Z,6.82
2017-11-20T06:22:35.168Z,7.02
2017-11-20T06:25:03.593Z,6.79
2017-11-20T06:27:31.998Z,6.87
2017-11-20T06:30:00.380Z,6.62
2017-11-20T06:32:28.785Z,6.78
2017-11-20T06:34:58.637Z,6.82
2017-11-20T06:37:27.913Z,6.73
2017-11-20T06:39:58.293Z,6.64
2017-11-20T06:42:26.669Z,6.81
2017-11-20T06:44:55.048Z,6.96
2017-11-20T06:47:23.471Z,6.96
2017-11-20T06:49:51.871Z,6.80
2017-11-20T06:52:20.288Z,6.96
2017-11-20T06:54:48.699Z,6.71
2017-11-20T06:57:17.073Z,6.90
2017-11-20T06:59:45.441Z,7.02
2017-11-20T07:02:14.153Z,7.01
2017-11-20T07:04:42.532Z,7.17
2017-11-20T07:07:10.909Z,7.24
2017-11-20T07:09:40.128Z,7.30
2017-11-20T07:12:09.267Z,7.31
2017-11-20T07:14:37.673Z,7.18
2017-11-20T07:17:06.082Z,7.25
2017-11-20T07:19:35.473Z,7.25
2017-11-20T07:22:03.849Z,7.39
2017-11-20T07:24:32.380Z,7.23
2017-11-20T07:27:03.550Z,7.37
2017-11-20T07:29:49.537Z,7.42
2017-11-20T07:32:18.692Z,7.43
2017-11-20T07:35:16.276Z,7.51
2017-11-20T07:38:02.214Z,7.47
2017-11-20T07:40:48.381Z,7.64
2017-11-20T07:43:17.075Z,7.77
2017-11-20T07:45:45.453Z,7.94
2017-11-20T07:48:13.876Z,8.05
2017-11-20T07:50:43.034Z,8.18
2017-11-20T07:53:11.425Z,8.44
2017-11-20T07:55:39.851Z,8.34
2017-11-20T07:58:08.989Z,8.33
2017-11-20T08:00:37.381Z,8.36
2017-11-20T08:03:06.050Z,8.23
2017-11-20T08:05:34.428Z,8.44
2017-11-20T08:08:03.626Z,8.29
2017-11-20T08:10:32.023Z,8.09
2017-11-20T08:13:00.633Z,8.18
2017-11-20T08:15:29.805Z,8.13
2017-11-20T08:17:58.303Z,8.31
2017-11-20T08:20:26.716Z,7.98
2017-11-20T08:22:55.103Z,8.07
2017-11-20T08:25:23.735Z,8.02
2017-11-20T08:27:52.105Z,7.89
2017-11-20T08:30:20.481Z,8.07
2017-11-20T08:32:48.916Z,7.97
2017-11-20T08:35:17.296Z,7.92
2017-11-20T08:37:45.690Z,7.92
2017-11-20T08:40:14.109Z,8.00
2017-11-20T08:42:43.995Z,8.19
2017-11-20T08:45:12.373Z,8.16
2017-11-20T08:47:40.956Z,8.34
2017-11-20T08:50:09.363Z,8.57
2017-11-20T08:52:37.740Z,8.55
2017-11-20T08:55:06.194Z,8.38
2017-11-20T08:57:34.810Z,8.61
2017-11-20T09:00:03.242Z,8.76
2017-11-20T09:02:31.718Z,8.76
2017-11-20T09:05:00.095Z,8.89
2017-11-20T09:07:29.253Z,8.94
2017-11-20T09:09:57.728Z,8.97
2017-11-20T09:12:26.113Z,8.81
2017-11-20T09:14:54.487Z,8.85
2017-11-20T09:17:23.705Z,8.78
2017-11-20T09:19:52.084Z,8.81
2017-11-20T09:22:20.483Z,8.63
2017-11-20T09:24:48.921Z,8.78
2017-11-20T09:27:17.745Z,9.02
2017-11-20T09:29:46.138Z,8.97
2017-11-20T09:32:15.389Z,8.99
2017-11-20T09:34:43.783Z,8.95
2017-11-20T09:37:12.192Z,8.90
2017-11-20T09:39:40.627Z,9.00
2017-11-20T09:42:09.033Z,9.11
2017-11-20T09:44:37.419Z,9.21
2017-11-20T09:47:05.840Z,8.85
2017-11-20T09:49:34.217Z,9.11
2017-11-20T09:52:02.622Z,9.30
2017-11-20T09:54:31.743Z,9.61
2017-11-20T09:57:00.139Z,9.52
2017-11-20T09:59:28.511Z,9.70
2017-11-20T10:01:57.469Z,9.63
2017-11-20T10:04:25.836Z,9.70
2017-11-20T10:06:54.220Z,9.19
2017-11-20T10:09:22.778Z,9.14
2017-11-20T10:11:51.932Z,9.38
2017-11-20T10:14:21.151Z,9.36
2017-11-20T10:16:49.657Z,9.41
2017-11-20T10:19:18.769Z,9.68
2017-11-20T10:21:47.968Z,9.67
2017-11-20T10:24:16.390Z,9.50
2017-11-20T10:26:44.774Z,9.43
2017-11-20T10:29:13.164Z,9.11
2017-11-20T10:31:42.184Z,9.39
2017-11-20T10:34:10.589Z,9.48
2017-11-20T10:36:38.989Z,9.90
2017-11-20T10:39:07.437Z,9.95
2017-11-20T10:41:35.823Z,9.83
2017-11-20T10:44:04.239Z,9.77
2017-11-20T10:46:32.660Z,9.68
2017-11-20T10:49:02.393Z,9.90
2017-11-20T10:51:30.783Z,10.07
2017-11-20T10:53:59.192Z,10.19
2017-11-20T10:56:27.590Z,10.02
2017-11-20T10:58:56.744Z,9.80
2017-11-20T11:01:25.534Z,9.77
2017-11-20T11:03:53.905Z,9.79
2017-11-20T11:06:22.624Z,9.69
2017-11-20T11:08:51.950Z,9.54
2017-11-20T11:11:20.328Z,9.68
2017-11-20T11:13:49.920Z,9.70
2017-11-20T11:16:19.255Z,9.62
2017-11-20T11:18:47.677Z,9.78
2017-11-20T11:21:16.477Z,9.87
2017-11-20T11:23:45.256Z,9.78
2017-11-20T11:26:13.994Z,9.81
2017-11-20T11:28:42.382Z,9.70
2017-11-20T11:31:11.557Z,9.75
2017-11-20T11:33:39.943Z,9.76
2017-11-20T11:36:08.322Z,9.83
2017-11-20T11:38:36.742Z,10.04
2017-11-20T11:41:05.248Z,10.08
2017-11-20T11:43:33.627Z,10.08
2017-11-20T11:46:02.158Z,10.20
2017-11-20T11:48:31.319Z,10.13
2017-11-20T11:51:00.449Z,9.91
2017-11-20T11:53:29.676Z,10.28
2017-11-20T11:55:58.771Z,10.33
2017-11-20T11:58:27.173Z,10.59
2017-11-20T12:00:55.585Z,10.54
2017-11-20T12:03:24.741Z,10.42
2017-11-20T12:05:53.473Z,10.48
2017-11-20T12:08:22.089Z,10.25
2017-11-20T12:10:50.720Z,10.09
2017-11-20T12:13:19.088Z,9.98
2017-11-20T12:15:48.321Z,9.83
2017-11-20T12:18:16.704Z,9.95
2017-11-20T12:20:45.874Z,9.99
2017-11-20T12:23:14.497Z,9.63
2017-11-20T12:25:43.713Z,9.83
2017-11-20T12:28:12.891Z,9.75
2017-11-20T12:30:42.132Z,9.78
2017-11-20T12:33:10.513Z,9.55
2017-11-20T12:35:38.896Z,9.62
2017-11-20T12:38:08.031Z,9.60
2017-11-20T12:40:37.200Z,9.79
2017-11-20T12:43:06.117Z,9.95
2017-11-20T12:45:34.550Z,9.93
2017-11-20T12:48:02.922Z,9.87
2017-11-20T12:50:31.971Z,9.76
2017-11-20T12:53:00.540Z,9.73
2017-11-20T12:55:28.935Z,9.74
2017-11-20T12:57:58.132Z,9.85
2017-11-20T13:00:26.552Z,9.81
2017-11-20T13:02:54.927Z,9.87
2017-11-20T13:05:24.061Z,9.99
2017-11-20T13:07:52.489Z,9.99
2017-11-20T13:10:20.843Z,9.90
2017-11-20T13:12:49.213Z,9.86
2017-11-20T13:15:17.689Z,9.74
2017-11-20T13:17:46.314Z,9.70
2017-11-20T13:20:15.163Z,9.82
2017-11-20T13:22:43.596Z,9.88
2017-11-20T13:25:12.744Z,9.62
2017-11-20T13:27:41.113Z,9.29
2017-11-20T13:30:09.537Z,9.24
2017-11-20T13:32:38.727Z,9.23
2017-11-20T13:35:07.132Z,9.19
2017-11-20T13:37:35.888Z,9.22
2017-11-20T13:40:04.279Z,9.36
2017-11-20T13:42:32.652Z,9.41
2017-11-20T13:45:01.087Z,9.59
2017-11-20T13:47:29.512Z,9.66
2017-11-20T13:49:57.904Z,9.72
2017-11-20T13:52:27.089Z,9.52
2017-11-20T13:54:55.541Z,9.40
2017-11-20T13:57:24.734Z,9.39
2017-11-20T13:59:53.231Z,9.28
2017-11-20T14:02:21.637Z,9.28
2017-11-20T14:04:51.033Z,9.30
2017-11-20T14:07:19.671Z,9.23
2017-11-20T14:09:48.848Z,9.40
2017-11-20T14:12:18.406Z,9.21
2017-11-20T14:14:46.830Z,9.25
2017-11-20T14:17:16.029Z,9.39
2017-11-20T14:19:44.445Z,9.33
2017-11-20T14:22:13.249Z,8.99
2017-11-20T14:24:41.625Z,9.05
2017-11-20T14:27:10.014Z,9.30
2017-11-20T14:29:38.748Z,9.13
2017-11-20T14:32:07.136Z,8.93
2017-11-20T14:34:35.540Z,9.00
2017-11-20T14:37:03.946Z,8.57
2017-11-20T14:39:33.099Z,8.36
2017-11-20T14:42:01.482Z,8.57
2017-11-20T14:44:30.177Z,8.42
2017-11-20T14:47:02.690Z,8.29
2017-11-20T14:49:31.676Z,8.60
2017-11-20T14:52:05.143Z,8.76
2017-11-20T14:54:34.261Z,8.70
2017-11-20T14:57:02.666Z,8.64
2017-11-20T14:59:31.049Z,8.74
2017-11-20T15:02:01.150Z,8.63
2017-11-20T15:04:29.524Z,8.75
2017-11-20T15:06:57.902Z,8.64
2017-11-20T15:09:26.365Z,8.57
2017-11-20T15:11:54.742Z,8.70
2017-11-20T15:14:23.159Z,8.56
2017-11-20T15:16:51.587Z,8.51
2017-11-20T15:19:20.021Z,8.71
2017-11-20T15:21:48.426Z,8.35
2017-11-20T15:24:19.057Z,8.53
2017-11-20T15:26:48.976Z,8.31
2017-11-20T15:29:19.074Z,8.22
2017-11-20T15:31:47.472Z,8.34
2017-11-20T15:34:15.869Z,8.62
2017-11-20T15:36:44.303Z,8.78
2017-11-20T15:39:12.707Z,8.69
2017-11-20T15:41:41.109Z,8.17
2017-11-20T15:44:09.753Z,8.49
2017-11-20T15:46:38.900Z,8.57
2017-11-20T15:49:07.306Z,8.47
2017-11-20T15:51:35.750Z,8.09
2017-11-20T15:54:04.145Z,7.90
2017-11-20T15:56:32.538Z,8.16
2017-11-20T15:59:01.871Z,8.26
2017-11-20T16:01:30.350Z,8.07
2017-11-20T16:03:58.767Z,8.02
2017-11-20T16:06:28.025Z,7.75
2017-11-20T16:08:56.409Z,7.88
2017-11-20T16:11:25.473Z,8.09
2017-11-20T16:13:53.943Z,8.12
2017-11-20T16:16:22.334Z,8.35
2017-11-20T16:18:50.761Z,8.07
2017-11-20T16:21:19.457Z,8.13
2017-11-20T16:23:48.616Z,8.12
2017-11-20T16:26:17.021Z,8.06
2017-11-20T16:28:46.197Z,8.05
2017-11-20T16:31:14.581Z,7.91
2017-11-20T16:33:42.959Z,7.92
2017-11-20T16:36:11.392Z,7.71
2017-11-20T16:38:40.464Z,7.98
2017-11-20T16:41:08.863Z,8.02
2017-11-20T16:43:37.290Z,7.63
2017-11-20T16:46:05.669Z,7.57
2017-11-20T16:48:34.937Z,7.44
2017-11-20T16:51:03.409Z,7.58
2017-11-20T16:53:31.796Z,7.77
2017-11-20T16:56:00.198Z,7.48
2017-11-20T16:58:46.283Z,7.90
2017-11-20T17:01:14.660Z,7.83
2017-11-20T17:03:43.047Z,7.84
2017-11-20T17:06:12.379Z,7.64
2017-11-20T17:08:40.781Z,7.94
2017-11-20T17:11:09.926Z,7.96
2017-11-20T17:13:38.346Z,7.50
2017-11-20T17:16:07.207Z,7.71
2017-11-20T17:18:35.604Z,7.86
2017-11-20T17:21:04.025Z,7.63
2017-11-20T17:23:32.401Z,7.63
2017-11-20T17:26:01.574Z,7.90
2017-11-20T17:28:30.078Z,8.09
2017-11-20T17:30:58.470Z,8.01
2017-11-20T17:33:27.640Z,7.93
2017-11-20T17:35:56.073Z,7.57
2017-11-20T17:38:24.499Z,7.75
2017-11-20T17:40:53.674Z,7.73
2017-11-20T17:43:22.104Z,7.68
2017-11-20T17:45:51.278Z,7.65
2017-11-20T17:48:19.695Z,7.59
2017-11-20T17:50:48.493Z,7.41
2017-11-20T17:53:16.900Z,7.53
2017-11-20T17:55:46.817Z,7.38
2017-11-20T17:58:15.519Z,7.40
2017-11-20T18:00:43.915Z,7.35
2017-11-20T18:03:12.881Z,7.69
2017-11-20T18:05:41.322Z,7.61
2017-11-20T18:08:09.716Z,7.67
2017-11-20T18:10:38.098Z,7.82
2017-11-20T18:13:07.469Z,7.78
2017-11-20T18:15:36.642Z,7.92
2017-11-20T18:18:05.092Z,7.69
2017-11-20T18:20:34.013Z,7.83
2017-11-20T18:23:02.741Z,7.81
2017-11-20T18:25:31.141Z,7.86
2017-11-20T18:27:59.573Z,7.67
2017-11-20T18:30:27.972Z,7.72
2017-11-20T18:32:57.188Z,7.64
2017-11-20T18:35:25.678Z,7.51
2017-11-20T18:37:54.080Z,7.42
2017-11-20T18:40:22.473Z,7.41
2017-11-20T18:42:51.027Z,7.43
2017-11-20T18:45:19.486Z,7.26
2017-11-20T18:47:47.876Z,7.24
2017-11-20T18:50:16.331Z,7.50
2017-11-20T18:52:45.554Z,7.53
2017-11-20T18:55:13.970Z,7.48
2017-11-20T18:57:42.469Z,7.52
2017-11-20T19:00:28.443Z,7.38
2017-11-20T19:03:10.347Z,7.39
2017-11-20T19:05:56.528Z,7.38
2017-11-20T19:11:30.463Z,7.53
2017-11-20T19:13:59.044Z,7.57
2017-11-20T19:16:27.425Z,7.52
2017-11-20T19:18:55.827Z,7.64
2017-11-20T19:21:25.029Z,7.31
2017-11-20T19:23:53.429Z,7.20
2017-11-20T19:26:21.834Z,7.17
2017-11-20T19:28:50.621Z,7.19
2017-11-20T19:31:19.689Z,7.00
2017-11-20T19:33:48.870Z,7.38
2017-11-20T19:36:17.408Z,7.25
2017-11-20T19:38:46.734Z,7.45
2017-11-20T19:41:15.118Z,7.61
2017-11-20T19:43:43.560Z,7.54
2017-11-20T19:46:11.951Z,7.57
2017-11-20T19:48:40.596Z,7.50
2017-11-20T19:51:10.716Z,7.35
2017-11-20T19:53:39.865Z,7.47
2017-11-20T19:56:08.272Z,7.48
2017-11-20T19:58:37.139Z,7.88
2017-11-20T20:01:05.542Z,8.04
2017-11-20T20:03:33.920Z,7.95
2017-11-20T20:06:02.362Z,7.70
2017-11-20T20:08:30.776Z,7.71
2017-11-20T20:10:59.927Z,7.73
2017-11-20T20:13:46.122Z,7.74
2017-11-20T20:16:21.857Z,7.59
2017-11-20T20:18:51.056Z,7.61
2017-11-20T20:21:20.258Z,7.63
2017-11-20T20:23:49.781Z,7.65
2017-11-20T20:26:18.212Z,7.47
2017-11-20T20:28:46.609Z,7.45
2017-11-20T20:31:15.761Z,7.72
2017-11-20T20:33:44.265Z,7.31
2017-11-20T20:36:12.658Z,7.51
2017-11-20T20:38:41.072Z,7.48
2017-11-20T20:41:09.535Z,7.34
2017-11-20T20:43:38.076Z,7.31
2017-11-20T20:46:06.478Z,7.47
2017-11-20T20:48:34.906Z,7.35
2017-11-20T20:51:03.317Z,7.25
2017-11-20T20:53:31.709Z,7.38
2017-11-20T20:56:00.615Z,7.29
2017-11-20T20:58:29.038Z,7.29
2017-11-20T21:00:57.442Z,7.29
2017-11-20T21:03:25.907Z,7.50
2017-11-20T21:05:54.517Z,7.19
2017-11-20T21:08:22.921Z,7.16
2017-11-20T21:10:56.914Z,7.17
2017-11-20T21:13:26.117Z,7.36
2017-11-20T21:15:54.512Z,7.55
2017-11-20T21:18:23.588Z,7.66
2017-11-20T21:20:52.878Z,7.57
2017-11-20T21:23:21.296Z,7.53
2017-11-20T21:25:49.733Z,7.06
2017-11-20T21:28:18.189Z,7.22
2017-11-20T21:30:46.587Z,7.25
2017-11-20T21:33:15.792Z,7.38
2017-11-20T21:35:44.218Z,7.58
2017-11-20T21:38:13.361Z,7.73
2017-11-20T21:40:42.510Z,7.76
2017-11-20T21:43:10.899Z,8.02
2017-11-20T21:45:39.292Z,8.00
2017-11-20T21:48:07.720Z,8.00
2017-11-20T21:50:36.114Z,7.82
2017-11-20T21:53:04.515Z,7.70
2017-11-20T21:55:32.933Z,7.68
2017-11-20T21:58:01.308Z,7.74
2017-11-20T22:00:30.535Z,7.75
2017-11-20T22:02:59.135Z,7.56
2017-11-20T22:05:27.518Z,7.57
2017-11-20T22:07:56.325Z,7.69
2017-11-20T22:10:25.532Z,7.86
2017-11-20T22:16:06.591Z,7.92
2017-11-20T22:18:34.999Z,7.80
2017-11-20T22:21:03.452Z,7.90
2017-11-20T22:23:32.300Z,8.07
2017-11-20T22:26:00.693Z,7.98
2017-11-20T22:28:29.881Z,7.74
2017-11-20T22:30:58.353Z,7.80
2017-11-20T22:33:26.746Z,7.77
2017-11-20T22:35:55.368Z,7.63
2017-11-20T22:38:23.785Z,7.33
2017-11-20T22:40:52.944Z,7.62
2017-11-20T22:43:21.341Z,7.68
2017-11-20T22:45:51.146Z,7.70
2017-11-20T22:48:19.661Z,7.34
2017-11-20T22:50:48.450Z,7.29
2017-11-20T22:53:17.651Z,7.49
2017-11-20T22:55:46.072Z,7.45
2017-11-20T22:58:14.494Z,7.45
2017-11-20T23:00:43.697Z,7.30
2017-11-20T23:03:13.678Z,7.38
2017-11-20T23:05:42.122Z,7.45
2017-11-20T23:08:10.650Z,7.53
2017-11-20T23:10:39.076Z,7.38
2017-11-20T23:13:07.756Z,7.58
2017-11-20T23:15:36.213Z,7.32
2017-11-20T23:18:05.757Z,7.27
2017-11-20T23:20:34.153Z,7.03
2017-11-20T23:23:02.578Z,7.01
2017-11-20T23:25:31.740Z,7.07
2017-11-20T23:28:00.117Z,7.24
2017-11-20T23:30:28.637Z,7.29
2017-11-20T23:32:57.035Z,7.11
2017-11-20T23:35:25.442Z,7.08
2017-11-20T23:37:53.881Z,7.06
2017-11-20T23:40:22.275Z,6.77
2017-11-20T23:42:50.660Z,6.91
2017-11-20T23:45:19.862Z,7.20
2017-11-20T23:47:48.236Z,7.17
2017-11-20T23:50:16.664Z,7.12
2017-11-20T23:52:45.152Z,6.96
2017-11-20T23:55:13.727Z,7.31
2017-11-20T23:57:43.041Z,7.23
